Time;durP1;ratioP1;P1;durP2;ratioP2;P2;SDS_P1;SDS_P2;PMS_P1;PMS_P2;Temp;Humidity;BMP_temperature;BMP_pressure;BME280_temperature;BME280_humidity;BME280_pressure;Samples;Min_cycle;Max_cycle;Signal;HPM_P1;HPM_P2
2022/08/17 00:00:10;;;;;;;54.05;20.15;;;;;;;;;;7313783;19;163100;-13
2022/08/17 00:02:57;;;;;;;54.30;21.00;;;;;;;;;;7312498;19;154353;-14
2022/08/17 00:05:29;;;;;;;55.30;20.83;;;;;;;;;;7314022;19;154085;-13
2022/08/17 00:08:00;;;;;;;54.20;21.43;;;;;;;;;;7313817;19;162206;-13
2022/08/17 00:10:32;;;;;;;53.00;20.02;;;;;;;;;;7312354;19;163368;-13
2022/08/17 00:13:11;;;;;;;58.45;19.58;;;;;;;;;;7314710;19;154526;-14
2022/08/17 00:15:46;;;;;;;55.25;19.42;;;;;;;;;;7311948;19;154646;-14
2022/08/17 00:18:18;;;;;;;51.08;20.35;;;;;;;;;;7313627;19;162727;-14
2022/08/17 00:20:49;;;;;;;52.93;19.73;;;;;;;;;;7311273;19;162781;-17
2022/08/17 00:23:21;;;;;;;52.58;18.50;;;;;;;;;;7312845;19;154465;-14
2022/08/17 00:25:52;;;;;;;49.42;19.55;;;;;;;;;;7315671;19;154030;-14
2022/08/17 00:28:24;;;;;;;51.70;18.75;;;;;;;;;;7310242;19;162930;-14
2022/08/17 00:30:58;;;;;;;55.55;19.65;;;;;;;;;;7312158;19;162989;-13
2022/08/17 00:33:32;;;;;;;47.80;18.48;;;;;;;;;;7312369;19;154075;-14
2022/08/17 00:36:07;;;;;;;39.80;16.27;;;;;;;;;;7312996;19;154042;-14
2022/08/17 00:38:40;;;;;;;43.55;18.38;;;;;;;;;;7312416;19;161824;-14
2022/08/17 00:41:14;;;;;;;43.75;17.60;;;;;;;;;;7310822;19;162832;-14
2022/08/17 00:43:48;;;;;;;45.40;16.95;;;;;;;;;;7315124;19;155038;-13
2022/08/17 00:46:27;;;;;;;43.13;17.55;;;;;;;;;;7310366;19;153622;-13
2022/08/17 00:49:00;;;;;;;45.45;17.02;;;;;;;;;;7314464;19;162221;-14
2022/08/17 00:51:36;;;;;;;42.33;17.10;;;;;;;;;;7310202;19;162791;-16
2022/08/17 00:54:15;;;;;;;47.38;16.92;;;;;;;;;;7313755;19;154515;-14
2022/08/17 00:56:50;;;;;;;40.75;17.00;;;;;;;;;;7312707;19;154057;-13
2022/08/17 00:59:24;;;;;;;39.55;15.73;;;;;;;;;;7312199;19;162216;-14
2022/08/17 01:02:00;;;;;;;41.72;17.45;;;;;;;;;;7312215;19;163882;-13
2022/08/17 01:04:33;;;;;;;45.38;16.73;;;;;;;;;;7312484;19;154586;-14
2022/08/17 01:07:06;;;;;;;43.33;16.73;;;;;;;;;;7312320;19;154574;-14
2022/08/17 01:09:39;;;;;;;42.67;16.25;;;;;;;;;;7311526;19;162711;-14
2022/08/17 01:12:12;;;;;;;37.45;16.20;;;;;;;;;;7306989;19;163294;-14
2022/08/17 01:14:44;;;;;;;46.35;16.90;;;;;;;;;;7310319;19;154460;-14
2022/08/17 01:17:19;;;;;;;43.67;15.73;;;;;;;;;;7313479;19;154053;-14
2022/08/17 01:19:51;;;;;;;37.00;15.75;;;;;;;;;;7311698;19;162285;-14
2022/08/17 01:22:27;;;;;;;41.58;15.73;;;;;;;;;;7311339;19;163294;-13
2022/08/17 01:25:01;;;;;;;41.95;16.33;;;;;;;;;;7311148;19;154408;-14
2022/08/17 01:27:38;;;;;;;21.50;8.73;;;;;;;;;;7310659;19;153568;-15
2022/08/17 01:30:15;;;;;;;24.38;8.93;;;;;;;;;;7311237;19;162656;-17
2022/08/17 01:32:50;;;;;;;33.47;11.98;;;;;;;;;;7307181;19;163255;-16
2022/08/17 01:35:22;;;;;;;27.58;10.02;;;;;;;;;;7312882;19;154477;-15
2022/08/17 01:37:57;;;;;;;29.10;10.32;;;;;;;;;;7313663;19;154041;-14
2022/08/17 01:40:35;;;;;;;27.95;11.65;;;;;;;;;;7310793;19;162922;-14
2022/08/17 01:43:12;;;;;;;25.38;10.10;;;;;;;;;;7311444;19;162792;-15
2022/08/17 01:45:47;;;;;;;25.30;11.20;;;;;;;;;;7310799;19;154513;-14
2022/08/17 01:48:20;;;;;;;27.77;11.55;;;;;;;;;;7310393;19;154099;-15
2022/08/17 01:50:53;;;;;;;29.10;11.13;;;;;;;;;;7310822;19;162228;-14
2022/08/17 01:53:31;;;;;;;27.33;10.15;;;;;;;;;;7310374;19;162779;-14
2022/08/17 01:56:07;;;;;;;26.27;10.45;;;;;;;;;;7311711;19;154456;-15
2022/08/17 01:58:41;;;;;;;28.77;10.52;;;;;;;;;;7309954;19;154209;-14
2022/08/17 02:01:13;;;;;;;;;;;;;;;;;;7311691;19;162172;-15
2022/08/17 02:03:45;;;;;;;27.33;9.48;;;;;;;;;;7309790;19;162943;-14
2022/08/17 02:06:16;;;;;;;25.43;10.33;;;;;;;;;;7310003;19;154813;-15
2022/08/17 02:08:50;;;;;;;27.25;10.50;;;;;;;;;;7310867;19;154590;-15
2022/08/17 02:11:23;;;;;;;25.98;9.65;;;;;;;;;;7309082;19;162028;-16
2022/08/17 02:13:54;;;;;;;26.10;10.73;;;;;;;;;;7310460;19;163280;-14
2022/08/17 02:16:26;;;;;;;26.77;10.48;;;;;;;;;;7310758;19;154365;-15
2022/08/17 02:18:57;;;;;;;23.30;9.38;;;;;;;;;;7310495;19;153935;-14
2022/08/17 02:21:28;;;;;;;25.85;9.85;;;;;;;;;;7308326;19;162835;-15
2022/08/17 02:24:02;;;;;;;27.23;10.70;;;;;;;;;;7309482;19;162790;-15
2022/08/17 02:26:36;;;;;;;23.00;9.52;;;;;;;;;;7316703;19;154811;-14
2022/08/17 02:29:07;;;;;;;20.85;8.50;;;;;;;;;;7315384;19;154088;-15
2022/08/17 02:31:39;;;;;;;17.33;7.88;;;;;;;;;;7316043;19;162607;-14
2022/08/17 02:34:10;;;;;;;22.33;7.47;;;;;;;;;;7316368;19;162338;-15
2022/08/17 02:36:41;;;;;;;17.80;7.35;;;;;;;;;;7316966;19;153924;-15
2022/08/17 02:39:17;;;;;;;19.63;6.75;;;;;;;;;;7316823;19;154159;-15
2022/08/17 02:41:48;;;;;;;21.70;8.45;;;;;;;;;;7316408;19;162643;-14
2022/08/17 02:44:20;;;;;;;15.48;7.70;;;;;;;;;;7315143;19;162790;-15
2022/08/17 02:46:51;;;;;;;19.13;7.80;;;;;;;;;;7316391;19;154429;-15
2022/08/17 02:49:23;;;;;;;20.30;8.70;;;;;;;;;;7316257;19;154066;-15
2022/08/17 02:51:54;;;;;;;20.95;8.50;;;;;;;;;;7315426;19;162331;-15
2022/08/17 02:54:28;;;;;;;20.85;8.05;;;;;;;;;;7315967;19;162857;-15
2022/08/17 02:56:59;;;;;;;21.23;8.13;;;;;;;;;;7316368;19;154463;-15
2022/08/17 02:59:31;;;;;;;20.70;8.60;;;;;;;;;;7316129;19;153967;-15
2022/08/17 03:02:04;;;;;;;16.33;7.60;;;;;;;;;;7315774;19;163237;-15
2022/08/17 03:04:35;;;;;;;20.02;8.30;;;;;;;;;;7315741;19;163354;-15
2022/08/17 03:07:07;;;;;;;16.52;8.35;;;;;;;;;;7316120;19;154744;-14
2022/08/17 03:09:41;;;;;;;17.30;7.25;;;;;;;;;;7315875;19;154025;-15
2022/08/17 03:12:15;;;;;;;20.95;8.02;;;;;;;;;;7314725;19;162217;-14
2022/08/17 03:14:46;;;;;;;22.30;8.55;;;;;;;;;;7315460;19;163200;-14
2022/08/17 03:17:17;;;;;;;16.42;7.57;;;;;;;;;;7316047;19;155000;-15
2022/08/17 03:19:50;;;;;;;20.48;7.90;;;;;;;;;;7315735;19;154004;-15
2022/08/17 03:22:25;;;;;;;17.70;7.85;;;;;;;;;;7315555;19;162235;-15
2022/08/17 03:25:03;;;;;;;17.42;7.70;;;;;;;;;;7313652;19;162907;-14
2022/08/17 03:27:55;;;;;;;18.77;8.55;;;;;;;;;;7313907;19;154474;-14
2022/08/17 03:30:31;;;;;;;18.48;7.63;;;;;;;;;;7315551;19;154387;-15
2022/08/17 03:33:08;;;;;;;17.08;7.55;;;;;;;;;;7313717;19;162218;-14
2022/08/17 03:35:41;;;;;;;19.15;7.65;;;;;;;;;;7313677;19;162737;-14
2022/08/17 03:38:15;;;;;;;15.95;8.35;;;;;;;;;;7314692;19;154495;-14
2022/08/17 03:40:58;;;;;;;19.95;7.47;;;;;;;;;;7315245;19;154609;-16
2022/08/17 03:43:38;;;;;;;17.83;7.18;;;;;;;;;;7314837;19;162633;-14
2022/08/17 03:57:09;;;;;;;19.45;7.32;;;;;;;;;;7314359;19;162760;-15
2022/08/17 03:59:41;;;;;;;13.40;6.53;;;;;;;;;;7314784;19;154405;-15
2022/08/17 04:02:17;;;;;;;14.93;7.37;;;;;;;;;;7314457;19;154237;-15
2022/08/17 04:04:49;;;;;;;15.90;7.57;;;;;;;;;;7314195;19;162260;-15
2022/08/17 04:07:21;;;;;;;15.13;7.40;;;;;;;;;;7313873;19;162827;-14
2022/08/17 04:09:53;;;;;;;16.13;8.27;;;;;;;;;;7314478;19;154879;-15
2022/08/17 04:12:43;;;;;;;19.80;7.13;;;;;;;;;;7313656;19;154206;-14
2022/08/17 04:15:15;;;;;;;15.63;7.28;;;;;;;;;;7314134;19;162584;-15
2022/08/17 04:17:46;;;;;;;16.48;6.80;;;;;;;;;;7313841;19;163195;-15
2022/08/17 04:20:20;;;;;;;18.03;7.20;;;;;;;;;;7314430;19;154561;-14
2022/08/17 04:23:00;;;;;;;16.65;7.07;;;;;;;;;;7313787;19;154205;-15
2022/08/17 04:25:35;;;;;;;19.65;7.30;;;;;;;;;;7313565;19;163098;-15
2022/08/17 04:28:09;;;;;;;13.90;6.43;;;;;;;;;;7311475;19;162985;-15
2022/08/17 04:30:42;;;;;;;16.88;7.55;;;;;;;;;;7313676;19;154580;-15
2022/08/17 04:33:16;;;;;;;17.45;7.03;;;;;;;;;;7312533;19;154031;-14
2022/08/17 04:35:49;;;;;;;14.10;6.78;;;;;;;;;;7313562;19;162378;-15
2022/08/17 04:38:23;;;;;;;14.35;6.75;;;;;;;;;;7312991;19;162788;-14
2022/08/17 04:43:42;;;;;;;16.00;7.05;;;;;;;;;;7313312;19;153988;-15
2022/08/17 04:46:16;;;;;;;13.07;6.65;;;;;;;;;;7313090;19;163082;-14
2022/08/17 04:48:49;;;;;;;15.45;7.07;;;;;;;;;;7312198;19;163194;-15
2022/08/17 04:51:23;;;;;;;16.08;6.93;;;;;;;;;;7312977;19;154902;-15
2022/08/17 04:53:57;;;;;;;17.58;7.03;;;;;;;;;;7311288;19;154478;-19
2022/08/17 04:56:30;;;;;;;13.93;6.40;;;;;;;;;;7312705;19;162272;-15
2022/08/17 04:59:07;;;;;;;13.55;7.07;;;;;;;;;;7312409;19;162788;-14
2022/08/17 05:01:42;;;;;;;14.45;5.78;;;;;;;;;;7312996;19;154934;-15
2022/08/17 05:04:19;;;;;;;16.48;7.30;;;;;;;;;;7312487;19;153967;-14
2022/08/17 05:06:53;;;;;;;13.57;6.32;;;;;;;;;;7312223;19;162503;-15
2022/08/17 05:09:24;;;;;;;14.75;6.28;;;;;;;;;;7310588;19;162854;-15
2022/08/17 05:11:55;;;;;;;11.45;5.82;;;;;;;;;;7312299;19;154964;-14
2022/08/17 05:14:29;;;;;;;13.73;5.72;;;;;;;;;;7310237;19;153975;-15
2022/08/17 05:17:03;;;;;;;12.77;6.13;;;;;;;;;;7311962;19;162256;-15
2022/08/17 05:19:34;;;;;;;13.68;6.57;;;;;;;;;;7311988;19;163222;-15
2022/08/17 05:22:07;;;;;;;13.35;6.28;;;;;;;;;;7312373;19;155227;-15
2022/08/17 05:24:38;;;;;;;13.17;6.20;;;;;;;;;;7312145;19;154067;-15
2022/08/17 05:27:09;;;;;;;14.70;6.30;;;;;;;;;;7309067;19;162653;-14
2022/08/17 05:29:45;;;;;;;14.07;6.03;;;;;;;;;;7311044;19;162722;-15
2022/08/17 05:32:21;;;;;;;16.58;6.32;;;;;;;;;;7312153;19;154926;-15
2022/08/17 05:34:52;;;;;;;14.95;6.47;;;;;;;;;;7309535;19;154689;-14
2022/08/17 05:37:23;;;;;;;12.80;6.35;;;;;;;;;;7311351;19;162627;-14
2022/08/17 05:39:55;;;;;;;14.85;6.60;;;;;;;;;;7311234;19;163311;-15
2022/08/17 05:42:27;;;;;;;15.15;4.90;;;;;;;;;;7311622;19;154531;-20
2022/08/17 05:45:01;;;;;;;8.52;3.55;;;;;;;;;;7311693;19;154227;-15
2022/08/17 05:47:33;;;;;;;7.72;3.88;;;;;;;;;;7311161;19;162213;-15
2022/08/17 05:50:07;;;;;;;10.35;3.30;;;;;;;;;;7311130;19;162852;-14
2022/08/17 05:52:49;;;;;;;7.05;2.90;;;;;;;;;;7311494;19;154440;-15
2022/08/17 05:55:25;;;;;;;11.43;3.13;;;;;;;;;;7308670;19;154183;-15
2022/08/17 05:58:10;;;;;;;4.35;2.45;;;;;;;;;;7307880;19;162862;-14
2022/08/17 06:00:54;;;;;;;7.28;2.47;;;;;;;;;;7315138;19;163336;-15
2022/08/17 06:03:44;;;;;;;5.38;2.40;;;;;;;;;;7317814;19;154509;-15
2022/08/17 06:06:39;;;;;;;8.15;2.28;;;;;;;;;;7317742;19;154108;-15
2022/08/17 06:09:23;;;;;;;7.25;2.35;;;;;;;;;;7315338;19;162816;-15
2022/08/17 06:12:05;;;;;;;10.60;2.40;;;;;;;;;;7315518;19;163268;-15
2022/08/17 06:14:57;;;;;;;9.40;2.53;;;;;;;;;;7316462;19;154865;-15
2022/08/17 06:17:31;;;;;;;7.05;2.40;;;;;;;;;;7317358;19;153957;-14
2022/08/17 06:20:07;;;;;;;10.15;2.70;;;;;;;;;;7317030;19;162707;-13
2022/08/17 06:22:43;;;;;;;10.77;2.42;;;;;;;;;;7316757;19;162935;-17
2022/08/17 06:25:17;;;;;;;9.65;2.53;;;;;;;;;;7317204;19;153905;-13
2022/08/17 06:27:52;;;;;;;8.50;2.35;;;;;;;;;;7315626;19;153995;-14
2022/08/17 06:30:26;;;;;;;4.40;1.92;;;;;;;;;;7316840;19;162274;-14
2022/08/17 06:33:08;;;;;;;8.55;3.42;;;;;;;;;;7316381;19;163265;-14
2022/08/17 06:35:45;;;;;;;10.50;3.22;;;;;;;;;;7315262;19;154447;-14
2022/08/17 06:38:24;;;;;;;7.53;2.70;;;;;;;;;;7314968;19;154003;-14
2022/08/17 06:41:03;;;;;;;5.93;2.38;;;;;;;;;;7316276;19;162200;-13
2022/08/17 06:43:44;;;;;;;7.10;1.95;;;;;;;;;;7316221;19;162702;-13
2022/08/17 06:46:26;;;;;;;8.35;2.08;;;;;;;;;;7316498;19;155015;-14
2022/08/17 06:49:10;;;;;;;6.75;2.25;;;;;;;;;;7316723;19;154061;-13
2022/08/17 06:51:45;;;;;;;5.53;2.35;;;;;;;;;;7316112;19;162220;-13
2022/08/17 06:54:24;;;;;;;5.38;2.05;;;;;;;;;;7315484;19;162865;-14
2022/08/17 06:57:01;;;;;;;6.47;2.03;;;;;;;;;;7316118;19;154430;-13
2022/08/17 06:59:46;;;;;;;6.65;2.10;;;;;;;;;;7316124;19;154138;-14
2022/08/17 07:02:25;;;;;;;6.15;2.63;;;;;;;;;;7315784;19;162324;-14
2022/08/17 07:05:02;;;;;;;6.28;2.70;;;;;;;;;;7314259;19;162858;-14
2022/08/17 07:10:30;;;;;;;9.32;2.53;;;;;;;;;;7315433;19;154126;-13
2022/08/17 07:13:15;;;;;;;10.93;2.38;;;;;;;;;;7315610;19;161788;-13
2022/08/17 07:15:48;;;;;;;5.95;2.10;;;;;;;;;;7313818;19;163296;-14
2022/08/17 07:18:21;;;;;;;6.38;2.25;;;;;;;;;;7315605;19;154381;-14
2022/08/17 07:21:01;;;;;;;6.00;2.53;;;;;;;;;;7315530;19;154568;-14
2022/08/17 07:23:41;;;;;;;12.63;2.65;;;;;;;;;;7315186;19;164283;-14
2022/08/17 07:26:12;;;;;;;6.70;2.85;;;;;;;;;;7314967;19;163389;-14
2022/08/17 07:28:46;;;;;;;8.50;2.60;;;;;;;;;;7313313;19;154462;-14
2022/08/17 07:31:17;;;;;;;7.88;2.70;;;;;;;;;;7315356;19;153938;-14
2022/08/17 07:34:05;;;;;;;7.25;2.67;;;;;;;;;;7315375;19;162343;-15
2022/08/17 07:36:39;;;;;;;10.63;3.50;;;;;;;;;;7312548;19;163354;-14
2022/08/17 07:39:11;;;;;;;11.77;3.50;;;;;;;;;;7315280;19;154354;-21
2022/08/17 07:41:46;;;;;;;10.48;2.63;;;;;;;;;;7314982;19;154074;-14
2022/08/17 07:44:21;;;;;;;8.20;3.25;;;;;;;;;;7314553;19;162143;-13
2022/08/17 07:49:41;;;;;;;15.00;3.67;;;;;;;;;;7314240;19;154528;-14
2022/08/17 07:52:31;;;;;;;10.18;3.20;;;;;;;;;;7314893;19;154249;-14
2022/08/17 07:55:22;;;;;;;11.27;3.10;;;;;;;;;;7313572;19;162237;-13
2022/08/17 07:57:58;;;;;;;8.65;2.75;;;;;;;;;;7313897;19;164138;-14
2022/08/17 08:00:32;;;;;;;10.30;2.83;;;;;;;;;;7314683;19;154416;-13
2022/08/17 08:03:15;;;;;;;11.65;2.90;;;;;;;;;;7314222;19;154145;-13
2022/08/17 08:05:56;;;;;;;16.15;3.35;;;;;;;;;;7314365;19;162556;-13
2022/08/17 08:08:34;;;;;;;15.52;3.50;;;;;;;;;;7313964;19;163421;-13
2022/08/17 08:11:09;;;;;;;15.38;3.45;;;;;;;;;;7314171;19;154518;-13
2022/08/17 08:13:44;;;;;;;14.07;3.60;;;;;;;;;;7313799;19;154002;-14
2022/08/17 08:16:28;;;;;;;10.88;3.03;;;;;;;;;;7311983;19;162227;-14
2022/08/17 08:19:01;;;;;;;13.13;3.35;;;;;;;;;;7313706;19;163179;-14
2022/08/17 08:21:48;;;;;;;15.68;4.05;;;;;;;;;;7314196;19;154763;-13
2022/08/17 08:24:38;;;;;;;9.32;2.72;;;;;;;;;;7313221;19;154063;-13
2022/08/17 08:27:20;;;;;;;12.35;3.90;;;;;;;;;;7312394;19;162742;-14
2022/08/17 08:29:56;;;;;;;14.90;3.53;;;;;;;;;;7313325;19;163374;-14
2022/08/17 08:32:41;;;;;;;9.30;2.88;;;;;;;;;;7313532;19;154468;-14
2022/08/17 08:35:21;;;;;;;17.40;4.03;;;;;;;;;;7311584;19;153936;-13
2022/08/17 08:38:04;;;;;;;10.40;3.08;;;;;;;;;;7312854;19;162317;-13
2022/08/17 08:40:52;;;;;;;13.90;4.10;;;;;;;;;;7312600;19;163422;-14
2022/08/17 08:43:31;;;;;;;10.50;3.13;;;;;;;;;;7313613;19;154971;-13
2022/08/17 08:46:13;;;;;;;14.13;3.47;;;;;;;;;;7313245;19;154053;-14
2022/08/17 08:49:09;;;;;;;11.47;3.03;;;;;;;;;;7312935;19;162537;-13
2022/08/17 08:51:52;;;;;;;10.80;3.42;;;;;;;;;;7312683;19;163807;-14
2022/08/17 08:54:33;;;;;;;11.02;3.38;;;;;;;;;;7311166;19;154968;-13
2022/08/17 08:57:17;;;;;;;9.93;2.80;;;;;;;;;;7310964;19;154129;-14
2022/08/17 09:00:08;;;;;;;12.88;2.78;;;;;;;;;;7311180;19;162298;-13
2022/08/17 09:03:07;;;;;;;11.18;3.97;;;;;;;;;;7312566;19;163319;-14
2022/08/17 09:05:59;;;;;;;10.48;3.33;;;;;;;;;;7312984;19;153933;-14
2022/08/17 09:08:38;;;;;;;9.15;3.08;;;;;;;;;;7312473;19;154595;-14
2022/08/17 09:11:14;;;;;;;8.90;2.80;;;;;;;;;;7310442;19;162242;-14
2022/08/17 09:13:59;;;;;;;9.63;2.60;;;;;;;;;;7312001;19;163163;-14
2022/08/17 09:16:34;;;;;;;12.82;3.75;;;;;;;;;;7311049;19;154931;-15
2022/08/17 09:19:13;;;;;;;9.27;2.75;;;;;;;;;;7312358;19;154003;-12
2022/08/17 09:21:51;;;;;;;8.95;2.90;;;;;;;;;;7312383;19;162269;-13
2022/08/17 09:24:28;;;;;;;13.25;3.17;;;;;;;;;;7310117;19;162773;-15
2022/08/17 09:27:06;;;;;;;10.00;3.17;;;;;;;;;;7310352;19;154398;-16
2022/08/17 09:29:44;;;;;;;8.68;2.97;;;;;;;;;;7310310;19;154606;-14
2022/08/17 09:32:21;;;;;;;11.43;2.78;;;;;;;;;;7310758;19;162855;-14
2022/08/17 09:34:58;;;;;;;13.00;2.85;;;;;;;;;;7307791;19;162732;-14
2022/08/17 09:37:35;;;;;;;11.68;3.00;;;;;;;;;;7308867;19;154533;-13
2022/08/17 09:40:15;;;;;;;12.85;3.40;;;;;;;;;;7310774;19;154420;-14
2022/08/17 09:42:50;;;;;;;6.63;3.10;;;;;;;;;;7309113;19;162703;-14
2022/08/17 09:45:36;;;;;;;6.25;2.70;;;;;;;;;;7308762;19;162431;-13
2022/08/17 09:48:13;;;;;;;6.45;2.60;;;;;;;;;;7308532;19;155437;-15
2022/08/17 09:50:52;;;;;;;9.48;2.50;;;;;;;;;;7310283;19;153979;-15
2022/08/17 09:53:23;;;;;;;8.38;2.78;;;;;;;;;;7309814;19;162372;-15
2022/08/17 09:56:11;;;;;;;12.30;3.33;;;;;;;;;;7310009;19;162767;-15
2022/08/17 09:58:55;;;;;;;9.43;3.05;;;;;;;;;;7309736;19;155193;-14
2022/08/17 10:01:35;;;;;;;8.00;2.67;;;;;;;;;;7309526;19;154378;-14
2022/08/17 10:04:18;;;;;;;10.70;2.72;;;;;;;;;;7309627;19;162726;-15
2022/08/17 10:06:59;;;;;;;5.18;2.15;;;;;;;;;;7309428;19;162876;-15
2022/08/17 10:09:44;;;;;;;6.90;2.75;;;;;;;;;;7308110;19;154377;-15
2022/08/17 10:12:26;;;;;;;8.55;2.75;;;;;;;;;;7309048;19;154052;-15
2022/08/17 10:15:09;;;;;;;7.68;2.85;;;;;;;;;;7306929;19;162788;-15
2022/08/17 10:17:52;;;;;;;9.38;2.75;;;;;;;;;;7307024;19;162805;-15
2022/08/17 10:20:32;;;;;;;6.45;2.75;;;;;;;;;;7308989;19;154417;-15
2022/08/17 10:28:47;;;;;;;8.23;2.88;;;;;;;;;;7306000;19;163279;-15
2022/08/17 10:31:27;;;;;;;4.78;2.00;;;;;;;;;;7307573;19;154448;-14
2022/08/17 10:34:33;;;;;;;7.38;2.70;;;;;;;;;;7307353;19;153973;-15
2022/08/17 10:37:18;;;;;;;7.18;2.38;;;;;;;;;;7307182;19;162842;-15
2022/08/17 10:39:58;;;;;;;6.18;2.47;;;;;;;;;;7308374;19;163038;-15
2022/08/17 10:42:33;;;;;;;6.65;2.95;;;;;;;;;;7308536;19;154513;-14
2022/08/17 10:45:15;;;;;;;10.05;2.75;;;;;;;;;;7308537;19;154045;-14
2022/08/17 10:48:02;;;;;;;9.65;2.85;;;;;;;;;;7315312;19;162735;-14
2022/08/17 10:50:50;;;;;;;7.40;2.72;;;;;;;;;;7314905;19;163357;-14
2022/08/17 10:54:05;;;;;;;4.30;2.25;;;;;;;;;;7315035;19;154495;-14
2022/08/17 10:56:46;;;;;;;4.68;2.00;;;;;;;;;;7311010;19;155063;-14
2022/08/17 10:59:56;;;;;;;6.78;2.47;;;;;;;;;;7313764;19;163034;-19
2022/08/17 11:02:32;;;;;;;5.00;2.30;;;;;;;;;;7310532;19;162912;-15
2022/08/17 11:05:34;;;;;;;6.72;2.35;;;;;;;;;;7313332;19;154491;-14
2022/08/17 11:08:34;;;;;;;6.20;3.03;;;;;;;;;;7313622;19;154199;-14
2022/08/17 11:11:25;;;;;;;4.00;2.50;;;;;;;;;;7314706;19;162792;-14
2022/08/17 11:14:10;;;;;;;6.28;2.58;;;;;;;;;;7312970;19;162852;-15
2022/08/17 11:16:52;;;;;;;3.50;2.00;;;;;;;;;;7312884;19;154578;-15
2022/08/17 11:19:44;;;;;;;6.00;2.03;;;;;;;;;;7314371;19;154077;-14
2022/08/17 11:23:14;;;;;;;5.72;2.38;;;;;;;;;;7314206;19;162359;-15
2022/08/17 11:25:53;;;;;;;6.32;2.10;;;;;;;;;;7310229;19;163446;-14
2022/08/17 11:28:33;;;;;;;4.28;2.53;;;;;;;;;;7311815;19;155099;-14
2022/08/17 11:31:10;;;;;;;6.80;2.10;;;;;;;;;;7313892;19;153535;-14
2022/08/17 11:34:06;;;;;;;5.30;2.15;;;;;;;;;;7314094;19;162758;-14
2022/08/17 11:37:05;;;;;;;4.50;2.00;;;;;;;;;;7312475;19;162909;-14
2022/08/17 11:40:03;;;;;;;4.35;2.40;;;;;;;;;;7313454;19;154530;-14
2022/08/17 11:42:52;;;;;;;4.40;2.30;;;;;;;;;;7312795;19;153961;-13
2022/08/17 11:45:48;;;;;;;6.60;2.50;;;;;;;;;;7312039;19;162289;-14
2022/08/17 11:54:06;;;;;;;3.08;1.83;;;;;;;;;;7313515;19;154213;-15
2022/08/17 11:56:58;;;;;;;5.90;2.20;;;;;;;;;;7311219;19;162255;-14
2022/08/17 12:00:05;;;;;;;4.55;2.08;;;;;;;;;;7310926;19;163227;-14
2022/08/17 12:02:42;;;;;;;4.60;2.08;;;;;;;;;;7313124;19;155147;-14
2022/08/17 12:05:41;;;;;;;12.65;2.30;;;;;;;;;;7313042;19;154316;-14
2022/08/17 12:08:20;;;;;;;3.95;2.42;;;;;;;;;;7311027;19;162253;-15
2022/08/17 12:10:59;;;;;;;6.40;2.42;;;;;;;;;;7312586;19;163821;-14
2022/08/17 12:13:34;;;;;;;4.07;2.05;;;;;;;;;;7311044;19;154998;-15
2022/08/17 12:16:09;;;;;;;9.10;2.40;;;;;;;;;;7313202;19;154064;-15
2022/08/17 12:18:51;;;;;;;7.85;2.45;;;;;;;;;;7309587;19;162704;-15
2022/08/17 12:21:34;;;;;;;5.38;2.35;;;;;;;;;;7312475;19;162862;-16
2022/08/17 12:24:12;;;;;;;5.38;2.33;;;;;;;;;;7312818;19;155092;-16
2022/08/17 12:26:44;;;;;;;5.80;2.10;;;;;;;;;;7312983;19;154486;-16
2022/08/17 12:29:18;;;;;;;3.08;1.83;;;;;;;;;;7312370;19;162916;-15
2022/08/17 12:31:54;;;;;;;5.43;2.17;;;;;;;;;;7312275;19;163939;-14
2022/08/17 12:34:28;;;;;;;5.70;1.90;;;;;;;;;;7312384;19;154413;-14
2022/08/17 12:37:03;;;;;;;6.00;2.53;;;;;;;;;;7312084;19;154642;-15
2022/08/17 12:39:34;;;;;;;4.38;2.13;;;;;;;;;;7309771;19;162321;-15
2022/08/17 12:42:08;;;;;;;3.45;1.75;;;;;;;;;;7311986;19;162776;-14
2022/08/17 12:44:39;;;;;;;4.32;2.63;;;;;;;;;;7311156;19;154910;-14
2022/08/17 12:47:16;;;;;;;3.45;2.10;;;;;;;;;;7312615;19;154446;-14
2022/08/17 12:49:52;;;;;;;5.57;2.17;;;;;;;;;;7311661;19;162268;-14
2022/08/17 12:52:26;;;;;;;4.13;2.50;;;;;;;;;;7310309;19;162927;-14
2022/08/17 12:55:01;;;;;;;2.88;1.92;;;;;;;;;;7312377;19;154397;-14
2022/08/17 12:57:35;;;;;;;5.30;2.10;;;;;;;;;;7312074;19;154027;-15
2022/08/17 13:00:14;;;;;;;3.20;1.73;;;;;;;;;;7308941;19;162704;-15
2022/08/17 13:02:52;;;;;;;4.63;2.05;;;;;;;;;;7311814;19;162724;-15
2022/08/17 13:05:27;;;;;;;3.30;2.00;;;;;;;;;;7310341;19;154546;-14
2022/08/17 13:08:03;;;;;;;3.85;2.08;;;;;;;;;;7309609;19;154151;-14
2022/08/17 13:10:36;;;;;;;5.38;2.00;;;;;;;;;;7311502;19;163742;-14
2022/08/17 13:13:23;;;;;;;5.10;1.92;;;;;;;;;;7310571;19;162860;-14
2022/08/17 13:15:57;;;;;;;6.43;2.45;;;;;;;;;;7311079;19;154556;-14
2022/08/17 13:18:40;;;;;;;4.30;1.92;;;;;;;;;;7310834;19;153870;-14
2022/08/17 13:21:21;;;;;;;3.83;2.03;;;;;;;;;;7310961;19;162194;-14
2022/08/17 13:24:04;;;;;;;4.80;2.17;;;;;;;;;;7310546;19;163471;-14
2022/08/17 13:26:39;;;;;;;3.58;2.13;;;;;;;;;;7311116;19;154449;-15
2022/08/17 13:29:22;;;;;;;8.80;2.72;;;;;;;;;;7307801;19;154123;-14
2022/08/17 13:31:57;;;;;;;9.82;3.70;;;;;;;;;;7310478;19;162242;-15
2022/08/17 13:34:40;;;;;;;28.13;10.27;;;;;;;;;;7310496;19;162822;-25
2022/08/17 13:37:28;;;;;;;455.50;174.27;;;;;;;;;;7310660;19;154475;-14
2022/08/17 13:40:28;;;;;;;390.92;148.02;;;;;;;;;;7308517;19;154734;-14
2022/08/17 13:43:02;;;;;;;273.45;98.15;;;;;;;;;;7309691;19;162246;-14
2022/08/17 13:45:48;;;;;;;240.38;90.47;;;;;;;;;;7309886;19;162710;-14
2022/08/17 13:48:27;;;;;;;205.57;73.55;;;;;;;;;;7310163;19;154853;-14
2022/08/17 13:51:18;;;;;;;208.30;77.50;;;;;;;;;;7310064;19;153987;-14
2022/08/17 13:53:56;;;;;;;189.75;72.15;;;;;;;;;;7309488;19;163701;-15
2022/08/17 13:56:32;;;;;;;196.93;69.68;;;;;;;;;;7309602;19;162764;-15
2022/08/17 13:59:08;;;;;;;187.05;71.28;;;;;;;;;;7308834;19;154445;-14
2022/08/17 14:01:41;;;;;;;188.85;68.10;;;;;;;;;;7309758;19;153571;-15
2022/08/17 14:04:15;;;;;;;184.52;67.22;;;;;;;;;;7309078;19;162653;-14
2022/08/17 14:06:54;;;;;;;186.93;66.60;;;;;;;;;;7307594;19;163789;-14
2022/08/17 14:09:28;;;;;;;179.90;66.95;;;;;;;;;;7307906;19;155139;-21
2022/08/17 14:12:03;;;;;;;182.77;66.50;;;;;;;;;;7307620;19;154252;-14
2022/08/17 14:14:35;;;;;;;172.70;67.13;;;;;;;;;;7306991;19;162279;-14
2022/08/17 14:17:06;;;;;;;165.27;65.18;;;;;;;;;;7308888;19;162915;-14
2022/08/17 14:19:38;;;;;;;169.18;63.00;;;;;;;;;;7308231;19;154349;-14
2022/08/17 14:22:18;;;;;;;178.60;67.03;;;;;;;;;;7315224;19;154018;-14
2022/08/17 14:24:50;;;;;;;179.52;64.97;;;;;;;;;;7315391;19;162228;-15
2022/08/17 14:27:23;;;;;;;173.52;63.85;;;;;;;;;;7314723;19;163391;-15
2022/08/17 14:29:54;;;;;;;163.75;63.17;;;;;;;;;;7315834;19;154850;-15
2022/08/17 14:32:27;;;;;;;160.10;62.60;;;;;;;;;;7315743;19;154636;-14
2022/08/17 14:34:59;;;;;;;157.15;61.55;;;;;;;;;;7315250;19;162212;-14
2022/08/17 14:37:35;;;;;;;161.43;62.17;;;;;;;;;;7315163;19;162929;-14
2022/08/17 14:40:11;;;;;;;162.75;60.85;;;;;;;;;;7314658;19;154385;-15
2022/08/17 14:42:44;;;;;;;155.68;61.22;;;;;;;;;;7313995;19;154891;-14
2022/08/17 14:45:16;;;;;;;155.93;60.83;;;;;;;;;;7315105;19;162336;-14
2022/08/17 14:47:48;;;;;;;155.20;57.97;;;;;;;;;;7314854;19;162852;-14
2022/08/17 14:50:20;;;;;;;;;;;;;;;;;;7316233;19;154535;-14
2022/08/17 14:52:54;;;;;;;144.25;57.50;;;;;;;;;;7315190;19;154117;-14
2022/08/17 14:55:26;;;;;;;148.60;58.70;;;;;;;;;;7314718;19;162247;-15
2022/08/17 14:57:57;;;;;;;153.80;57.28;;;;;;;;;;7314553;19;162961;-14
2022/08/17 15:00:30;;;;;;;151.10;57.45;;;;;;;;;;7314388;19;155025;-14
2022/08/17 15:03:03;;;;;;;140.52;53.83;;;;;;;;;;7315295;19;154513;-14
2022/08/17 15:05:37;;;;;;;141.82;55.78;;;;;;;;;;7314597;19;162286;-14
2022/08/17 15:08:11;;;;;;;129.80;52.15;;;;;;;;;;7314316;19;164107;-14
2022/08/17 15:10:43;;;;;;;138.10;53.38;;;;;;;;;;7314601;19;154916;-14
2022/08/17 15:13:20;;;;;;;135.07;53.07;;;;;;;;;;7315016;19;154179;-13
2022/08/17 15:15:52;;;;;;;137.00;52.95;;;;;;;;;;7313388;19;162441;-14
2022/08/17 15:18:23;;;;;;;140.00;52.15;;;;;;;;;;7314622;19;162789;-14
2022/08/17 15:20:55;;;;;;;144.05;53.70;;;;;;;;;;7313476;19;154405;-14
2022/08/17 15:23:29;;;;;;;123.03;48.60;;;;;;;;;;7314598;19;154048;-14
2022/08/17 15:26:00;;;;;;;123.60;49.35;;;;;;;;;;7312922;19;162208;-14
2022/08/17 15:28:32;;;;;;;121.85;47.65;;;;;;;;;;7312269;19;163378;-14
2022/08/17 15:31:04;;;;;;;124.15;48.90;;;;;;;;;;7313310;19;155160;-14
2022/08/17 15:33:35;;;;;;;;;;;;;;;;;;7312492;19;154414;-14
2022/08/17 15:36:09;;;;;;;119.63;46.33;;;;;;;;;;7313376;19;162800;-14
2022/08/17 15:38:42;;;;;;;117.95;47.78;;;;;;;;;;7312519;19;163447;-13
2022/08/17 15:41:18;;;;;;;104.45;42.20;;;;;;;;;;7312501;19;154562;-14
2022/08/17 15:43:51;;;;;;;104.55;39.40;;;;;;;;;;7313670;19;154292;-14
2022/08/17 15:46:24;;;;;;;93.13;37.63;;;;;;;;;;7314405;19;163081;-15